Terminal Aerodrome Forecast
Issued by NWS Cleveland, OH

Home | Current Version | Previous Version | Text Only | Print | Product List | Glossary On
Versions: 1 2 3 4 5 6 7 8 9 10 11 12 13 14 15 16 17 18 19 20 21
000
FTUS41 KCLE 201720
TAFCLE
TAF
KCLE 201720Z 2018/2124 29012G20KT P6SM VCTS SCT035CB BKN045
     FM202000 25011KT P6SM BKN035
     FM210900 27006KT 3SM BR SCT002
     FM211400 36006KT P6SM SCT040=

USA.gov is the U.S. government's official web portal to all federal, state and local government web resources and services.